createdAt,value
2022-11-05T00:09:38.204Z,33.40
2022-11-05T00:14:58.599Z,27.55
2022-11-05T00:20:00.742Z,27.83
2022-11-05T00:25:14.564Z,29.80
2022-11-05T00:30:24.940Z,32.17
2022-11-05T00:35:26.915Z,29.60
2022-11-05T00:40:28.834Z,30.58
2022-11-05T00:45:31.140Z,34.83
2022-11-05T00:50:33.674Z,30.25
2022-11-05T00:55:40.297Z,31.30
2022-11-05T01:00:44.785Z,28.95
2022-11-05T01:05:49.327Z,34.40
2022-11-05T01:10:56.777Z,28.77
2022-11-05T01:16:06.056Z,32.08
2022-11-05T01:21:13.317Z,26.27
2022-11-05T01:26:15.439Z,25.42
2022-11-05T01:31:17.265Z,23.88
2022-11-05T01:36:19.118Z,23.73
2022-11-05T01:41:20.922Z,25.75
2022-11-05T01:46:46.122Z,29.80
2022-11-05T01:51:49.002Z,23.25
2022-11-05T01:56:56.127Z,20.60
2022-11-05T02:01:58.497Z,22.00
2022-11-05T02:07:00.546Z,23.95
2022-11-05T02:12:02.884Z,18.05
2022-11-05T02:17:10.545Z,20.95
2022-11-05T02:22:58.619Z,22.15
2022-11-05T02:28:03.281Z,25.42
2022-11-05T02:33:27.501Z,21.83
2022-11-05T02:38:45.766Z,23.67
2022-11-05T02:44:22.339Z,21.15
2022-11-05T02:49:32.398Z,23.90
2022-11-05T02:54:41.423Z,16.85
2022-11-05T02:59:43.222Z,16.55
2022-11-05T03:04:45.136Z,14.07
2022-11-05T03:09:46.975Z,16.33
2022-11-05T03:15:31.904Z,17.70
2022-11-05T03:21:11.443Z,18.23
2022-11-05T03:26:23.644Z,18.75
2022-11-05T03:31:28.318Z,18.75
2022-11-05T03:36:41.343Z,22.08
2022-11-05T03:41:47.973Z,23.10
2022-11-05T03:46:52.231Z,24.40
2022-11-05T03:52:18.518Z,25.38
2022-11-05T03:57:29.662Z,30.38
2022-11-05T04:02:31.860Z,34.90
2022-11-05T04:07:52.422Z,35.88
2022-11-05T04:13:13.248Z,33.88
2022-11-05T04:18:15.185Z,34.63
2022-11-05T04:23:35.704Z,36.22
2022-11-05T04:28:55.975Z,32.20
2022-11-05T04:33:57.769Z,35.05
2022-11-05T04:38:59.586Z,42.20
2022-11-05T04:44:01.434Z,36.83
2022-11-05T04:49:03.247Z,42.78
2022-11-05T04:54:05.095Z,38.45
2022-11-05T04:59:06.876Z,31.60
2022-11-05T05:04:08.711Z,35.42
2022-11-05T05:09:10.516Z,44.90
2022-11-05T05:14:12.655Z,36.35
2022-11-05T05:19:14.584Z,48.28
2022-11-05T05:24:20.228Z,40.33
2022-11-05T05:29:22.016Z,48.88
2022-11-05T05:34:23.821Z,34.60
2022-11-05T05:39:27.035Z,31.80
2022-11-05T05:44:28.844Z,37.78
2022-11-05T05:49:30.697Z,34.70
2022-11-05T05:54:35.978Z,39.75
2022-11-05T05:59:40.162Z,35.20
2022-11-05T06:04:41.951Z,41.25
2022-11-05T06:09:43.745Z,40.20
2022-11-05T06:14:45.699Z,36.28
2022-11-05T06:19:48.015Z,33.97
2022-11-05T06:24:49.795Z,38.42
2022-11-05T06:29:51.601Z,31.65
2022-11-05T06:34:53.558Z,46.25
2022-11-05T06:39:57.243Z,36.72
2022-11-05T06:44:59.092Z,39.33
2022-11-05T06:50:00.951Z,43.15
2022-11-05T06:55:02.803Z,45.05
2022-11-05T07:00:08.065Z,51.67
2022-11-05T07:05:12.943Z,43.15
2022-11-05T07:10:17.515Z,42.17
2022-11-05T07:15:19.320Z,36.38
2022-11-05T07:20:21.122Z,41.90
2022-11-05T07:25:22.911Z,41.15
2022-11-05T07:30:25.208Z,33.03
2022-11-05T07:35:27.320Z,36.58
2022-11-05T07:40:30.435Z,41.13
2022-11-05T07:45:32.334Z,32.67
2022-11-05T07:50:36.626Z,30.92
2022-11-05T07:55:40.543Z,38.63
2022-11-05T08:00:42.599Z,37.20
2022-11-05T08:05:47.156Z,33.08
2022-11-05T08:10:49.128Z,32.22
2022-11-05T08:15:50.966Z,27.40
2022-11-05T08:20:52.760Z,28.67
2022-11-05T08:25:55.851Z,26.80
2022-11-05T08:30:58.015Z,29.38
2022-11-05T08:36:04.459Z,30.00
2022-11-05T08:41:06.516Z,32.63
2022-11-05T08:46:08.626Z,32.75
2022-11-05T08:51:10.420Z,31.73
2022-11-05T08:56:12.363Z,26.38
2022-11-05T09:01:14.189Z,29.92
2022-11-05T09:06:16.055Z,24.08
2022-11-05T09:11:18.333Z,23.75
2022-11-05T09:16:25.994Z,25.90
2022-11-05T09:21:27.827Z,28.75
2022-11-05T09:26:29.638Z,21.17
2022-11-05T09:31:31.458Z,28.27
2022-11-05T09:36:33.267Z,31.70
2022-11-05T09:41:40.104Z,22.55
2022-11-05T09:46:56.532Z,27.23
2022-11-05T09:51:59.502Z,30.95
2022-11-05T09:57:03.265Z,21.63
2022-11-05T10:02:48.228Z,21.00
2022-11-05T10:08:10.730Z,25.15
2022-11-05T10:13:32.129Z,27.77
2022-11-05T10:18:39.300Z,22.13
2022-11-05T10:23:41.504Z,21.13
2022-11-05T10:28:43.308Z,18.33
2022-11-05T10:33:49.350Z,22.88
2022-11-05T10:38:52.039Z,15.98
2022-11-05T10:44:22.812Z,24.08
2022-11-05T10:50:02.876Z,23.05
2022-11-05T10:55:16.257Z,19.33
2022-11-05T11:00:20.638Z,15.48
2022-11-05T11:05:33.139Z,22.38
2022-11-05T11:10:42.394Z,15.82
2022-11-05T11:15:44.561Z,26.13
2022-11-05T11:20:46.759Z,13.88
2022-11-05T11:25:54.079Z,14.95
2022-11-05T11:31:14.897Z,13.75
2022-11-05T11:36:20.204Z,10.65
2022-11-05T11:41:29.953Z,22.60
2022-11-05T11:46:34.054Z,10.90
2022-11-05T11:51:49.527Z,12.32
2022-11-05T11:56:51.859Z,15.10
2022-11-05T12:01:56.394Z,11.32
2022-11-05T12:07:32.115Z,8.32
2022-11-05T12:12:46.707Z,9.93
2022-11-05T12:18:04.049Z,9.50
2022-11-05T12:23:26.775Z,20.13
2022-11-05T12:29:17.202Z,9.45
2022-11-05T12:34:44.577Z,7.15
2022-11-05T12:40:17.203Z,8.25
2022-11-05T12:45:29.267Z,18.80
2022-11-05T12:50:44.133Z,14.75
2022-11-05T12:55:49.777Z,10.77
2022-11-05T13:01:00.209Z,16.15
2022-11-05T13:06:07.778Z,10.05
2022-11-05T13:11:29.724Z,8.98
2022-11-05T13:16:38.590Z,9.35
2022-11-05T13:21:42.690Z,10.90
2022-11-05T13:26:54.434Z,13.32
2022-11-05T13:32:09.547Z,9.15
2022-11-05T13:37:31.850Z,5.90
2022-11-05T13:42:39.758Z,10.82
2022-11-05T13:47:56.171Z,13.90
2022-11-05T13:53:27.565Z,9.43
2022-11-05T13:58:54.935Z,13.75
2022-11-05T14:03:57.159Z,10.15
2022-11-05T14:09:02.523Z,9.95
2022-11-05T14:14:17.367Z,7.53
2022-11-05T14:19:19.136Z,5.97
2022-11-05T14:24:24.012Z,11.20
2022-11-05T14:29:36.295Z,6.95
2022-11-05T14:35:24.599Z,8.50
2022-11-05T14:40:31.812Z,9.02
2022-11-05T14:45:39.627Z,9.73
2022-11-05T14:50:42.826Z,12.10
2022-11-05T14:55:45.943Z,8.13
2022-11-05T15:00:48.287Z,12.13
2022-11-05T15:06:03.705Z,11.82
2022-11-05T15:11:29.588Z,11.45
2022-11-05T15:16:49.289Z,8.43
2022-11-05T15:21:53.450Z,15.55
2022-11-05T15:27:37.087Z,11.68
2022-11-05T15:32:39.333Z,16.73
2022-11-05T15:37:53.407Z,17.42
2022-11-05T15:43:17.389Z,13.50
2022-11-05T15:48:20.140Z,15.57
2022-11-05T15:54:08.848Z,11.02
2022-11-05T15:59:01.918Z,13.02
2022-11-05T16:04:16.474Z,13.13
2022-11-05T16:09:26.280Z,14.13
2022-11-05T16:14:35.219Z,8.85
2022-11-05T16:19:42.335Z,13.75
2022-11-05T16:24:45.142Z,11.82
2022-11-05T16:29:55.735Z,11.13
2022-11-05T16:35:00.580Z,20.35
2022-11-05T16:40:03.759Z,20.40
2022-11-05T16:45:06.952Z,11.82
2022-11-05T16:50:23.995Z,10.77
2022-11-05T16:55:26.098Z,11.45
2022-11-05T17:00:28.322Z,10.93
2022-11-05T17:05:31.786Z,19.83
2022-11-05T17:10:33.758Z,13.13
2022-11-05T17:15:35.857Z,13.82
2022-11-05T17:20:46.426Z,15.75
2022-11-05T17:25:51.149Z,14.93
2022-11-05T17:30:53.894Z,32.92
2022-11-05T17:35:56.302Z,25.15
2022-11-05T17:40:58.130Z,17.40
2022-11-05T17:46:04.337Z,20.65
2022-11-05T17:51:11.741Z,21.02
2022-11-05T17:56:27.195Z,18.45
2022-11-05T18:06:39.863Z,20.60
2022-11-05T18:11:42.619Z,18.90
2022-11-05T18:16:44.505Z,18.90
2022-11-05T18:21:46.376Z,20.63
2022-11-05T18:26:48.688Z,17.10
2022-11-05T18:31:50.525Z,17.55
2022-11-05T18:36:56.390Z,23.40
2022-11-05T18:41:58.610Z,13.38
2022-11-05T18:47:00.682Z,12.45
2022-11-05T18:52:03.071Z,15.90
2022-11-05T18:57:04.945Z,16.52
2022-11-05T19:02:08.791Z,15.52
2022-11-05T19:07:12.037Z,8.18
2022-11-05T19:12:14.008Z,10.75
2022-11-05T19:17:15.928Z,20.58
2022-11-05T19:22:18.620Z,15.05
2022-11-05T19:27:20.547Z,9.30
2022-11-05T19:32:22.451Z,15.52
2022-11-05T19:37:24.408Z,11.52
2022-11-05T19:42:26.819Z,12.88
2022-11-05T19:47:29.641Z,16.23
2022-11-05T19:52:31.601Z,11.45
2022-11-05T19:57:36.100Z,11.52
2022-11-05T20:02:38.228Z,16.15
2022-11-05T20:07:40.796Z,15.35
2022-11-05T20:12:42.708Z,8.68
2022-11-05T20:17:48.760Z,11.77
2022-11-05T20:22:53.348Z,9.85
2022-11-05T20:27:57.387Z,6.72
2022-11-05T20:32:59.166Z,20.77
2022-11-05T20:38:00.954Z,10.45
2022-11-05T20:43:02.778Z,11.98
2022-11-05T20:48:04.975Z,13.98
2022-11-05T20:53:06.751Z,13.13
2022-11-05T20:58:09.263Z,6.15
2022-11-05T21:03:11.406Z,6.32
2022-11-05T21:08:13.933Z,11.68
2022-11-05T21:13:16.114Z,13.30
2022-11-05T21:18:21.624Z,8.65
2022-11-05T21:23:23.655Z,8.93
2022-11-05T21:28:25.531Z,11.98
2022-11-05T21:33:27.795Z,9.52
2022-11-05T21:38:29.569Z,16.58
2022-11-05T21:43:31.660Z,16.55
2022-11-05T21:48:34.073Z,8.00
2022-11-05T21:53:54.588Z,7.32
2022-11-05T21:59:15.146Z,8.00
2022-11-05T22:09:18.835Z,10.38
2022-11-05T22:14:20.682Z,6.63
2022-11-05T22:19:22.884Z,9.45
2022-11-05T22:24:25.083Z,12.85
2022-11-05T22:29:27.470Z,8.15
2022-11-05T22:34:29.278Z,8.18
2022-11-05T22:39:31.481Z,14.57
2022-11-05T22:44:33.548Z,26.55
2022-11-05T22:49:35.472Z,27.10
2022-11-05T22:54:39.471Z,44.22
2022-11-05T22:59:41.446Z,28.30
2022-11-05T23:04:43.245Z,19.10
2022-11-05T23:10:03.816Z,10.13
2022-11-05T23:20:33.247Z,16.75
2022-11-05T23:25:35.468Z,7.20
2022-11-05T23:31:01.419Z,8.02
2022-11-05T23:36:21.862Z,5.60
2022-11-05T23:47:39.147Z,6.28
2022-11-05T23:52:40.972Z,10.75
2022-11-05T23:57:42.826Z,9.75
